createdAt,value
2018-07-07T00:02:20.287Z,12.71
2018-07-07T00:08:15.273Z,12.78
2018-07-07T00:14:10.259Z,14.32
2018-07-07T00:20:05.328Z,14.29
2018-07-07T00:26:00.264Z,18.04
2018-07-07T00:31:55.272Z,11.58
2018-07-07T00:37:50.290Z,13.45
2018-07-07T00:43:45.265Z,12.83
2018-07-07T00:49:40.340Z,16.15
2018-07-07T00:55:35.284Z,13
2018-07-07T01:01:30.267Z,15.99
2018-07-07T01:07:25.279Z,15.22
2018-07-07T01:13:20.335Z,17.01
2018-07-07T01:19:15.281Z,15.3
2018-07-07T01:25:10.295Z,12.38
2018-07-07T01:31:05.305Z,14.37
2018-07-07T01:37:00.290Z,12.39
2018-07-07T01:42:55.307Z,12.65
2018-07-07T01:48:50.340Z,16.07
2018-07-07T01:54:45.310Z,14.91
2018-07-07T02:00:40.459Z,16.49
2018-07-07T02:06:35.453Z,16.03
2018-07-07T02:12:30.334Z,15
2018-07-07T02:18:25.354Z,17.96
2018-07-07T02:24:20.378Z,18.4
2018-07-07T02:30:15.376Z,13.04
2018-07-07T02:36:10.343Z,11.78
2018-07-07T02:42:05.366Z,13.42
2018-07-07T02:48:00.347Z,16.28
2018-07-07T02:53:55.374Z,14.9
2018-07-07T02:59:50.371Z,13.5
2018-07-07T03:05:45.376Z,17.83
2018-07-07T03:11:40.343Z,11.77
2018-07-07T03:17:35.398Z,13.25
2018-07-07T03:23:30.361Z,13.26
2018-07-07T03:29:25.447Z,13.48
2018-07-07T03:35:20.377Z,14.23
2018-07-07T03:41:15.409Z,12.91
2018-07-07T03:47:10.434Z,14.17
2018-07-07T03:53:05.393Z,17.66
2018-07-07T03:59:00.451Z,13.35
2018-07-07T04:04:55.411Z,17.69
2018-07-07T04:10:50.422Z,15.85
2018-07-07T04:16:45.393Z,16.82
2018-07-07T04:22:40.405Z,14.64
2018-07-07T04:28:35.415Z,12.58
2018-07-07T04:34:30.413Z,19.8
2018-07-07T04:40:25.423Z,15.8
2018-07-07T04:46:20.424Z,14.44
2018-07-07T04:52:15.420Z,12.63
2018-07-07T04:58:10.442Z,14.71
2018-07-07T05:04:05.453Z,13.22
2018-07-07T05:10:00.439Z,11.68
2018-07-07T05:15:55.460Z,14.44
2018-07-07T05:21:50.461Z,15.24
2018-07-07T05:27:45.501Z,12.51
2018-07-07T05:33:40.473Z,17.2
2018-07-07T05:39:35.450Z,15.94
2018-07-07T05:45:30.533Z,15.72
2018-07-07T05:51:25.456Z,18.28
2018-07-07T05:57:20.472Z,16.71
2018-07-07T06:03:15.491Z,13.76
2018-07-07T06:09:10.494Z,15.56
2018-07-07T06:15:06.005Z,16.52
2018-07-07T06:21:00.754Z,15.21
2018-07-07T06:26:55.544Z,14.23
2018-07-07T06:32:50.497Z,17.5
2018-07-07T06:38:45.504Z,15.9
2018-07-07T06:44:40.553Z,14.34
2018-07-07T06:50:35.509Z,19.55
2018-07-07T06:56:30.518Z,17.54
2018-07-07T07:02:25.508Z,15.58
2018-07-07T07:08:20.534Z,15.5
2018-07-07T07:14:15.565Z,12.52
2018-07-07T07:20:10.824Z,16.16
2018-07-07T07:26:05.614Z,11.66
2018-07-07T07:32:00.573Z,11.57
2018-07-07T07:37:55.554Z,9.99
2018-07-07T07:43:50.541Z,14.15
2018-07-07T07:49:45.561Z,8.75
2018-07-07T07:55:40.605Z,11.79
2018-07-07T08:01:35.589Z,8.58
2018-07-07T08:07:30.557Z,11.33
2018-07-07T08:13:25.589Z,10.47
2018-07-07T08:19:20.595Z,8.74
2018-07-07T08:25:15.584Z,10.8
2018-07-07T08:31:10.626Z,11.05
2018-07-07T08:37:05.596Z,9.95
2018-07-07T08:43:00.581Z,11.83
2018-07-07T08:48:55.596Z,11
2018-07-07T08:54:50.749Z,12.22
2018-07-07T09:00:45.744Z,12.19
2018-07-07T09:06:40.722Z,10.1
2018-07-07T09:12:35.628Z,9.06
2018-07-07T09:18:30.635Z,6.65
2018-07-07T09:24:25.680Z,10.18
2018-07-07T09:30:20.631Z,5.27
2018-07-07T09:36:15.626Z,7.94
2018-07-07T09:42:10.689Z,6.93
2018-07-07T09:48:05.686Z,6.42
2018-07-07T09:54:00.642Z,5.6
2018-07-07T09:59:55.698Z,6.67
2018-07-07T10:05:50.671Z,3.88
2018-07-07T10:11:45.664Z,6.37
2018-07-07T10:17:40.689Z,5.62
2018-07-07T10:23:35.669Z,5.9
2018-07-07T10:29:30.697Z,5.22
2018-07-07T10:35:25.679Z,5.76
2018-07-07T10:41:20.710Z,6.17
2018-07-07T10:47:15.690Z,7.11
2018-07-07T10:53:10.691Z,5.67
2018-07-07T10:59:05.695Z,10.62
2018-07-07T11:05:00.705Z,6.34
2018-07-07T11:10:55.751Z,10.68
2018-07-07T11:16:50.765Z,13.03
2018-07-07T11:22:46.200Z,13.51
2018-07-07T11:28:40.733Z,6.32
2018-07-07T11:34:35.723Z,8.59
2018-07-07T11:40:30.799Z,5.45
2018-07-07T11:46:25.724Z,4.61
2018-07-07T11:52:20.795Z,5.25
2018-07-07T11:58:15.750Z,3.68
2018-07-07T12:04:10.748Z,3.58
2018-07-07T12:10:05.766Z,4.17
2018-07-07T12:16:00.754Z,4.4
2018-07-07T12:21:55.757Z,6.11
2018-07-07T12:27:50.767Z,3.52
2018-07-07T12:33:45.772Z,4.1
2018-07-07T12:39:40.805Z,4.24
2018-07-07T12:45:35.800Z,4.32
2018-07-07T12:51:30.817Z,4.77
2018-07-07T12:57:25.815Z,5.04
2018-07-07T13:03:20.784Z,5.42
2018-07-07T13:09:15.853Z,7.05
2018-07-07T13:15:10.957Z,5.83
2018-07-07T13:21:05.889Z,9.32
2018-07-07T13:27:00.822Z,7.89
2018-07-07T13:32:55.818Z,4.91
2018-07-07T13:38:50.842Z,6.66
2018-07-07T13:44:45.861Z,5.69
2018-07-07T13:50:40.832Z,8.35
2018-07-07T13:56:35.835Z,5.98
2018-07-07T14:02:30.838Z,6.16
2018-07-07T14:08:25.846Z,6.86
2018-07-07T14:14:20.850Z,7.18
2018-07-07T14:20:15.853Z,6.98
2018-07-07T14:26:10.868Z,7.02
2018-07-07T14:32:05.881Z,9.09
2018-07-07T14:38:00.864Z,10.11
2018-07-07T14:43:55.858Z,8.18
2018-07-07T14:49:50.862Z,7.77
2018-07-07T14:55:45.922Z,7.77
2018-07-07T15:01:40.869Z,10.05
2018-07-07T15:07:35.928Z,9.77
2018-07-07T15:13:30.926Z,8.15
2018-07-07T15:19:25.915Z,6.41
2018-07-07T15:25:20.890Z,4.84
2018-07-07T15:31:15.908Z,5.91
2018-07-07T15:37:10.896Z,6.1
2018-07-07T15:43:05.966Z,8.04
2018-07-07T15:49:00.907Z,7.36
2018-07-07T15:54:55.942Z,8.34
2018-07-07T16:00:50.939Z,8.71
2018-07-07T16:06:45.939Z,7.58
2018-07-07T16:12:40.952Z,9.44
2018-07-07T16:18:35.946Z,7.33
2018-07-07T16:24:30.962Z,9.88
2018-07-07T16:30:25.955Z,6.73
2018-07-07T16:36:20.982Z,6
2018-07-07T16:42:15.960Z,6.32
2018-07-07T16:48:10.948Z,7.74
2018-07-07T16:54:05.957Z,9.46
2018-07-07T17:00:01.036Z,4.29
2018-07-07T17:05:56.023Z,4.37
2018-07-07T17:11:50.992Z,5.77
2018-07-07T17:17:46.017Z,5.31
2018-07-07T17:23:41.049Z,10.02
2018-07-07T17:29:36.024Z,5.99
2018-07-07T17:35:30.986Z,6.56
2018-07-07T17:41:26.008Z,7.5
2018-07-07T17:47:21.025Z,5.08
2018-07-07T17:53:16.024Z,5.94
2018-07-07T17:59:11.025Z,6.98
2018-07-07T18:05:06.012Z,5.92
2018-07-07T18:11:01.029Z,6.81
2018-07-07T18:16:56.079Z,7.59
2018-07-07T18:22:51.078Z,6.59
2018-07-07T18:28:46.057Z,5.69
2018-07-07T18:34:41.051Z,7.85
2018-07-07T18:40:36.049Z,7.97
2018-07-07T18:46:31.086Z,7.44
2018-07-07T18:52:26.067Z,8.23
2018-07-07T18:58:21.070Z,7.71
2018-07-07T19:04:16.086Z,7.38
2018-07-07T19:10:11.142Z,6.63
2018-07-07T19:16:06.081Z,8.86
2018-07-07T19:22:01.098Z,7.4
2018-07-07T19:27:56.099Z,8.25
2018-07-07T19:33:51.075Z,6.63
2018-07-07T19:39:46.097Z,8.53
2018-07-07T19:45:41.100Z,9.29
2018-07-07T19:51:36.097Z,8.43
2018-07-07T19:57:31.103Z,11.36
2018-07-07T20:03:26.138Z,9.38
2018-07-07T20:09:21.119Z,7.76
2018-07-07T20:15:16.093Z,14.26
2018-07-07T20:21:11.117Z,9.5
2018-07-07T20:27:06.119Z,11.55
2018-07-07T20:33:01.145Z,9.27
2018-07-07T20:38:56.140Z,8.4
2018-07-07T20:44:51.121Z,10.11
2018-07-07T20:50:46.155Z,8.59
2018-07-07T20:56:41.128Z,6.97
2018-07-07T21:02:36.149Z,9.01
2018-07-07T21:08:31.180Z,6.63
2018-07-07T21:14:26.173Z,8.13
2018-07-07T21:20:21.163Z,9.37
2018-07-07T21:26:16.166Z,7.45
2018-07-07T21:32:11.182Z,9.02
2018-07-07T21:38:06.190Z,6.82
2018-07-07T21:44:01.169Z,10.87
2018-07-07T21:49:56.187Z,7.49
2018-07-07T21:55:51.183Z,9.67
2018-07-07T22:01:46.190Z,7.35
2018-07-07T22:07:41.184Z,12.1
2018-07-07T22:13:36.185Z,7.87
2018-07-07T22:19:31.208Z,7.42
2018-07-07T22:25:26.200Z,9.8
2018-07-07T22:31:21.194Z,7.68
2018-07-07T22:37:16.231Z,9.37
2018-07-07T22:43:11.273Z,9.75
2018-07-07T22:49:06.232Z,10.97
2018-07-07T22:55:01.245Z,13.23
2018-07-07T23:00:56.211Z,9.75
2018-07-07T23:06:51.248Z,9.12
2018-07-07T23:12:46.285Z,10.4
2018-07-07T23:18:41.281Z,9.7
2018-07-07T23:24:36.236Z,8.34
2018-07-07T23:30:31.244Z,11.58
2018-07-07T23:36:26.244Z,9.27
2018-07-07T23:42:21.286Z,8.08
2018-07-07T23:48:16.254Z,9.72
2018-07-07T23:54:11.323Z,7.52
